CEST,Max TemperatureF,Mean TemperatureF,Min TemperatureF,Max Dew PointF,MeanDew PointF,Min DewpointF,Max Humidity, Mean Humidity, Min Humidity, Max Sea Level PressureIn, Mean Sea Level PressureIn, Min Sea Level PressureIn, Max VisibilityMiles, Mean VisibilityMiles, Min VisibilityMiles, Max Wind SpeedMPH, Mean Wind SpeedMPH, Max Gust SpeedMPH,PrecipitationIn, CloudCover, Events, WindDirDegrees
2012-9-1,60,58,55,57,55,54,100,93,88,30.24,30.15,30.06,6,6,6,9,7,,0.00,8,Rain,355
2012-9-2,69,61,53,61,56,52,94,85,68,30.24,30.22,30.18,6,6,4,8,6,,0.00,3,Rain,21
2012-9-3,73,65,57,59,57,55,100,80,57,30.24,30.19,30.15,6,5,2,12,6,,0.00,5,,337
2012-9-4,75,67,59,57,56,54,94,72,47,30.18,30.14,30.09,6,5,4,12,6,,0.00,6,,2
2012-9-5,75,66,57,57,55,54,94,72,47,30.12,30.08,30.04,6,6,6,12,6,,0.00,6,,338
2012-9-6,62,56,50,55,49,41,100,74,48,30.30,30.19,30.09,6,5,1,17,9,22,0.00,5,Rain,328
2012-9-7,69,56,44,46,43,41,87,59,35,30.30,30.23,30.18,,,,13,6,,0.00,,,293
2012-9-8,75,65,55,55,50,46,77,59,41,30.21,30.17,30.12,6,6,6,14,6,,0.00,3,,317
2012-9-9,75,64,53,55,53,50,94,67,44,30.18,30.15,30.09,6,6,6,8,4,,0.00,1,,108
2012-9-10,78,68,59,57,53,50,72,58,44,30.12,30.09,30.06,,,,12,7,,0.00,,,135
2012-9-11,80,70,60,57,52,48,63,53,39,30.09,30.01,29.92,6,6,6,13,6,,0.00,2,,146
2012-9-12,68,60,51,61,55,50,100,85,56,29.92,29.86,29.83,6,6,2,15,6,,0.00,7,Rain,273
2012-9-13,51,48,44,48,45,43,100,87,76,30.04,29.90,29.83,6,6,5,16,10,28,0.00,8,Rain,337
2012-9-14,60,51,42,46,42,39,100,72,45,30.04,29.99,29.92,6,6,6,8,6,,0.00,5,,305
2012-9-15,60,53,46,48,46,43,87,73,59,30.12,29.99,29.89,6,6,6,14,9,,0.00,6,,298
2012-9-16,62,56,51,48,47,45,88,71,52,30.15,30.10,30.06,6,6,6,9,5,,0.00,4,,88
2012-9-17,68,59,50,52,49,46,87,66,52,30.04,30.02,30.01,,,,9,6,,0.00,,,144
2012-9-18,71,61,51,57,53,50,100,80,53,30.04,29.97,29.89,6,3,0,8,4,,0.00,3,Fog,123
2012-9-19,60,54,48,55,50,45,100,88,82,30.12,29.95,29.83,6,6,6,13,6,,0.00,7,Rain,319
2012-9-20,55,48,42,45,40,37,93,70,51,30.24,30.19,30.12,6,6,6,13,7,,0.00,4,,325
2012-9-21,57,49,41,41,39,37,87,69,51,30.24,30.16,30.01,6,6,6,9,6,17,0.00,6,,103
2012-9-22,62,54,46,54,46,39,93,83,68,30.09,29.95,29.86,6,6,6,14,8,,0.00,6,Rain,199
2012-9-23,55,48,42,43,41,39,87,71,54,30.12,30.07,29.95,6,6,6,8,5,,0.00,3,,119
2012-9-24,66,57,48,57,49,39,88,77,68,29.92,29.72,29.59,6,6,6,14,6,,0.00,6,,113
2012-9-25,68,60,51,55,50,46,94,69,49,29.83,29.76,29.65,6,6,6,13,9,,0.00,1,Rain,188
2012-9-26,71,62,53,55,54,52,94,78,57,29.74,29.71,29.68,,,,13,6,,0.00,,,114
2012-9-27,60,58,53,57,52,46,94,80,63,29.98,29.82,29.62,6,6,6,17,8,,0.00,6,Rain,232
2012-9-28,64,57,50,50,46,43,94,70,45,30.15,30.10,30.01,6,6,6,14,7,,0.00,4,Rain,229
2012-9-29,59,54,48,54,49,45,100,84,72,30.09,30.05,29.98,6,6,6,16,5,,0.00,6,Rain,100
2012-9-30,64,56,48,54,46,41,100,74,42,30.21,30.16,30.06,6,5,4,7,6,,0.00,3,Rain,330